sensor_id;sensor_type;location;lat;lon;timestamp;pressure;altitude;pressure_sealevel;temperature;humidity
11830;BME280;5972;42.134;24.718;2022-10-16T00:00:41;100343.69;;;13.36;100.00
11830;BME280;5972;42.134;24.718;2022-10-16T00:03:09;100343.13;;;13.30;100.00
11830;BME280;5972;42.134;24.718;2022-10-16T00:05:38;100349.59;;;13.25;100.00
11830;BME280;5972;42.134;24.718;2022-10-16T00:08:06;100332.78;;;12.99;100.00
11830;BME280;5972;42.134;24.718;2022-10-16T00:10:35;100342.09;;;12.98;100.00
11830;BME280;5972;42.134;24.718;2022-10-16T00:13:02;100349.78;;;12.96;100.00
11830;BME280;5972;42.134;24.718;2022-10-16T00:15:29;100353.88;;;13.02;100.00
11830;BME280;5972;42.134;24.718;2022-10-16T00:17:56;100354.75;;;12.94;100.00
11830;BME280;5972;42.134;24.718;2022-10-16T00:20:23;100353.75;;;12.86;100.00
11830;BME280;5972;42.134;24.718;2022-10-16T00:22:49;100361.22;;;12.89;100.00
11830;BME280;5972;42.134;24.718;2022-10-16T00:25:16;100355.66;;;12.86;100.00
11830;BME280;5972;42.134;24.718;2022-10-16T00:27:45;100355.44;;;12.79;100.00
11830;BME280;5972;42.134;24.718;2022-10-16T00:30:11;100352.03;;;12.70;100.00
11830;BME280;5972;42.134;24.718;2022-10-16T00:32:38;100360.50;;;12.68;100.00
11830;BME280;5972;42.134;24.718;2022-10-16T00:35:05;100357.09;;;12.59;100.00
11830;BME280;5972;42.134;24.718;2022-10-16T00:37:32;100357.28;;;12.54;100.00
11830;BME280;5972;42.134;24.718;2022-10-16T00:39:59;100358.56;;;12.57;100.00
11830;BME280;5972;42.134;24.718;2022-10-16T00:42:26;100366.00;;;12.47;100.00
11830;BME280;5972;42.134;24.718;2022-10-16T00:44:57;100368.38;;;12.49;100.00
11830;BME280;5972;42.134;24.718;2022-10-16T00:47:27;100373.00;;;12.36;100.00
11830;BME280;5972;42.134;24.718;2022-10-16T00:50:00;100346.09;;;12.11;100.00
11830;BME280;5972;42.134;24.718;2022-10-16T00:52:28;100364.66;;;12.21;100.00
11830;BME280;5972;42.134;24.718;2022-10-16T00:54:56;100366.13;;;12.18;100.00
11830;BME280;5972;42.134;24.718;2022-10-16T00:57:23;100363.38;;;12.06;100.00
11830;BME280;5972;42.134;24.718;2022-10-16T00:59:51;100382.03;;;12.07;100.00
11830;BME280;5972;42.134;24.718;2022-10-16T01:02:19;100383.47;;;12.05;100.00
11830;BME280;5972;42.134;24.718;2022-10-16T01:04:48;100375.44;;;11.96;100.00
11830;BME280;5972;42.134;24.718;2022-10-16T01:07:20;100400.97;;;11.95;100.00
11830;BME280;5972;42.134;24.718;2022-10-16T01:09:59;100401.03;;;11.87;100.00
11830;BME280;5972;42.134;24.718;2022-10-16T01:12:35;100406.63;;;11.82;100.00
11830;BME280;5972;42.134;24.718;2022-10-16T01:15:10;100403.31;;;11.76;100.00
11830;BME280;5972;42.134;24.718;2022-10-16T01:17:43;100417.22;;;11.75;100.00
11830;BME280;5972;42.134;24.718;2022-10-16T01:20:19;100401.75;;;11.66;100.00
11830;BME280;5972;42.134;24.718;2022-10-16T01:22:59;100410.56;;;11.63;100.00
11830;BME280;5972;42.134;24.718;2022-10-16T01:25:36;100405.97;;;11.55;100.00
11830;BME280;5972;42.134;24.718;2022-10-16T01:28:10;100406.66;;;11.52;100.00
11830;BME280;5972;42.134;24.718;2022-10-16T01:30:40;100412.59;;;11.46;100.00
11830;BME280;5972;42.134;24.718;2022-10-16T01:33:13;100413.75;;;11.36;100.00
11830;BME280;5972;42.134;24.718;2022-10-16T01:35:44;100398.81;;;11.30;100.00
11830;BME280;5972;42.134;24.718;2022-10-16T01:38:16;100411.84;;;11.37;100.00
11830;BME280;5972;42.134;24.718;2022-10-16T01:40:49;100419.31;;;11.40;100.00
11830;BME280;5972;42.134;24.718;2022-10-16T01:43:21;100422.03;;;11.40;100.00
11830;BME280;5972;42.134;24.718;2022-10-16T01:45:49;100426.63;;;11.39;100.00
11830;BME280;5972;42.134;24.718;2022-10-16T01:48:18;100425.09;;;11.30;100.00
11830;BME280;5972;42.134;24.718;2022-10-16T01:50:51;100415.94;;;11.13;100.00
11830;BME280;5972;42.134;24.718;2022-10-16T01:53:21;100438.66;;;11.21;100.00
11830;BME280;5972;42.134;24.718;2022-10-16T01:55:49;100438.53;;;11.17;100.00
11830;BME280;5972;42.134;24.718;2022-10-16T01:58:19;100436.50;;;11.14;100.00
11830;BME280;5972;42.134;24.718;2022-10-16T02:00:46;100443.03;;;11.05;100.00
11830;BME280;5972;42.134;24.718;2022-10-16T02:03:16;100439.97;;;11.15;100.00
11830;BME280;5972;42.134;24.718;2022-10-16T02:05:46;100432.56;;;11.03;100.00
11830;BME280;5972;42.134;24.718;2022-10-16T02:08:13;100437.78;;;11.08;100.00
11830;BME280;5972;42.134;24.718;2022-10-16T02:10:40;100437.03;;;10.91;100.00
11830;BME280;5972;42.134;24.718;2022-10-16T02:13:10;100417.22;;;10.61;100.00
11830;BME280;5972;42.134;24.718;2022-10-16T02:15:40;100443.94;;;10.79;100.00
11830;BME280;5972;42.134;24.718;2022-10-16T02:18:07;100444.56;;;10.76;100.00
11830;BME280;5972;42.134;24.718;2022-10-16T02:20:40;100447.78;;;10.61;100.00
11830;BME280;5972;42.134;24.718;2022-10-16T02:23:12;100438.72;;;10.57;100.00
11830;BME280;5972;42.134;24.718;2022-10-16T02:25:44;100447.91;;;10.65;100.00
11830;BME280;5972;42.134;24.718;2022-10-16T02:28:16;100443.78;;;10.67;100.00
11830;BME280;5972;42.134;24.718;2022-10-16T02:30:49;100454.00;;;10.62;100.00
11830;BME280;5972;42.134;24.718;2022-10-16T02:33:19;100453.03;;;10.49;100.00
11830;BME280;5972;42.134;24.718;2022-10-16T02:35:49;100439.22;;;10.42;100.00
11830;BME280;5972;42.134;24.718;2022-10-16T02:38:17;100448.91;;;10.43;100.00
11830;BME280;5972;42.134;24.718;2022-10-16T02:40:45;100457.81;;;10.43;100.00
11830;BME280;5972;42.134;24.718;2022-10-16T02:43:13;100455.75;;;10.49;100.00
11830;BME280;5972;42.134;24.718;2022-10-16T02:45:40;100446.38;;;10.47;100.00
11830;BME280;5972;42.134;24.718;2022-10-16T02:48:08;100453.84;;;10.50;100.00
11830;BME280;5972;42.134;24.718;2022-10-16T02:50:35;100452.41;;;10.52;100.00
11830;BME280;5972;42.134;24.718;2022-10-16T02:53:01;100454.63;;;10.50;100.00
11830;BME280;5972;42.134;24.718;2022-10-16T02:55:28;100460.19;;;10.54;100.00
11830;BME280;5972;42.134;24.718;2022-10-16T02:57:55;100467.19;;;10.55;100.00
11830;BME280;5972;42.134;24.718;2022-10-16T03:00:22;100476.44;;;10.54;100.00
11830;BME280;5972;42.134;24.718;2022-10-16T03:02:49;100476.28;;;10.50;100.00
11830;BME280;5972;42.134;24.718;2022-10-16T03:05:18;100471.34;;;10.52;100.00
11830;BME280;5972;42.134;24.718;2022-10-16T03:07:44;100479.31;;;10.57;100.00
11830;BME280;5972;42.134;24.718;2022-10-16T03:10:11;100478.66;;;10.60;100.00
11830;BME280;5972;42.134;24.718;2022-10-16T03:12:38;100481.69;;;10.67;100.00
11830;BME280;5972;42.134;24.718;2022-10-16T03:15:06;100470.84;;;10.67;100.00
11830;BME280;5972;42.134;24.718;2022-10-16T03:17:33;100482.78;;;10.75;100.00
11830;BME280;5972;42.134;24.718;2022-10-16T03:20:00;100486.63;;;10.74;100.00
11830;BME280;5972;42.134;24.718;2022-10-16T03:22:30;100493.75;;;10.78;100.00
11830;BME280;5972;42.134;24.718;2022-10-16T03:24:57;100494.41;;;10.75;100.00
11830;BME280;5972;42.134;24.718;2022-10-16T03:27:24;100493.28;;;10.76;100.00
11830;BME280;5972;42.134;24.718;2022-10-16T03:29:51;100499.50;;;10.77;100.00
11830;BME280;5972;42.134;24.718;2022-10-16T03:32:18;100495.84;;;10.73;100.00
11830;BME280;5972;42.134;24.718;2022-10-16T03:34:45;100487.88;;;10.68;100.00
11830;BME280;5972;42.134;24.718;2022-10-16T03:37:12;100499.69;;;10.63;100.00
11830;BME280;5972;42.134;24.718;2022-10-16T03:39:40;100496.97;;;10.63;100.00
11830;BME280;5972;42.134;24.718;2022-10-16T03:42:07;100484.41;;;10.50;100.00
11830;BME280;5972;42.134;24.718;2022-10-16T03:44:34;100495.06;;;10.55;100.00
11830;BME280;5972;42.134;24.718;2022-10-16T03:47:00;100498.41;;;10.52;100.00
11830;BME280;5972;42.134;24.718;2022-10-16T03:49:27;100500.78;;;10.54;100.00
11830;BME280;5972;42.134;24.718;2022-10-16T03:51:54;100512.91;;;10.48;100.00
11830;BME280;5972;42.134;24.718;2022-10-16T03:54:21;100501.09;;;10.43;100.00
11830;BME280;5972;42.134;24.718;2022-10-16T03:56:49;100510.03;;;10.35;100.00
11830;BME280;5972;42.134;24.718;2022-10-16T03:59:16;100514.47;;;10.31;100.00
11830;BME280;5972;42.134;24.718;2022-10-16T04:01:43;100517.19;;;10.23;100.00
11830;BME280;5972;42.134;24.718;2022-10-16T04:04:10;100524.00;;;10.20;100.00
11830;BME280;5972;42.134;24.718;2022-10-16T04:06:37;100515.28;;;10.23;100.00
11830;BME280;5972;42.134;24.718;2022-10-16T04:09:04;100495.81;;;10.04;100.00
11830;BME280;5972;42.134;24.718;2022-10-16T04:11:30;100511.88;;;10.09;100.00
11830;BME280;5972;42.134;24.718;2022-10-16T04:13:59;100512.06;;;10.13;100.00
11830;BME280;5972;42.134;24.718;2022-10-16T04:16:26;100510.91;;;10.05;100.00
11830;BME280;5972;42.134;24.718;2022-10-16T04:18:53;100513.63;;;10.05;100.00
11830;BME280;5972;42.134;24.718;2022-10-16T04:21:19;100500.25;;;10.00;100.00
11830;BME280;5972;42.134;24.718;2022-10-16T04:23:46;100509.97;;;10.01;100.00
11830;BME280;5972;42.134;24.718;2022-10-16T04:26:13;100501.34;;;9.99;100.00
11830;BME280;5972;42.134;24.718;2022-10-16T04:28:40;100513.78;;;10.00;100.00
11830;BME280;5972;42.134;24.718;2022-10-16T04:31:08;100517.44;;;9.95;100.00
11830;BME280;5972;42.134;24.718;2022-10-16T04:33:35;100512.03;;;9.95;100.00
11830;BME280;5972;42.134;24.718;2022-10-16T04:36:03;100512.63;;;9.92;100.00
11830;BME280;5972;42.134;24.718;2022-10-16T04:38:30;100511.69;;;9.88;100.00
11830;BME280;5972;42.134;24.718;2022-10-16T04:40:57;100516.28;;;9.88;100.00
11830;BME280;5972;42.134;24.718;2022-10-16T04:43:25;100510.41;;;9.86;100.00
11830;BME280;5972;42.134;24.718;2022-10-16T04:45:52;100497.66;;;9.78;100.00
11830;BME280;5972;42.134;24.718;2022-10-16T04:48:21;100513.88;;;9.78;100.00
11830;BME280;5972;42.134;24.718;2022-10-16T04:50:48;100519.78;;;9.80;100.00
11830;BME280;5972;42.134;24.718;2022-10-16T04:53:15;100522.47;;;9.80;100.00
11830;BME280;5972;42.134;24.718;2022-10-16T04:55:42;100523.59;;;9.79;100.00
11830;BME280;5972;42.134;24.718;2022-10-16T04:58:09;100535.34;;;9.83;100.00
11830;BME280;5972;42.134;24.718;2022-10-16T05:00:36;100535.00;;;9.76;100.00
11830;BME280;5972;42.134;24.718;2022-10-16T05:03:04;100535.00;;;9.76;100.00
11830;BME280;5972;42.134;24.718;2022-10-16T05:05:34;100542.06;;;9.85;100.00
11830;BME280;5972;42.134;24.718;2022-10-16T05:08:01;100537.47;;;9.94;100.00
11830;BME280;5972;42.134;24.718;2022-10-16T05:10:28;100539.72;;;10.01;100.00
11830;BME280;5972;42.134;24.718;2022-10-16T05:12:55;100553.59;;;10.25;100.00
11830;BME280;5972;42.134;24.718;2022-10-16T05:15:22;100543.44;;;10.31;100.00
11830;BME280;5972;42.134;24.718;2022-10-16T05:17:52;100564.16;;;10.61;100.00
11830;BME280;5972;42.134;24.718;2022-10-16T05:20:19;100561.78;;;10.86;100.00
11830;BME280;5972;42.134;24.718;2022-10-16T05:22:47;100562.56;;;11.03;100.00
11830;BME280;5972;42.134;24.718;2022-10-16T05:25:14;100578.75;;;11.29;100.00
11830;BME280;5972;42.134;24.718;2022-10-16T05:27:41;100570.56;;;11.46;100.00
11830;BME280;5972;42.134;24.718;2022-10-16T05:30:09;100561.59;;;11.54;100.00
11830;BME280;5972;42.134;24.718;2022-10-16T05:32:36;100582.53;;;11.92;100.00
11830;BME280;5972;42.134;24.718;2022-10-16T05:35:03;100601.38;;;12.18;100.00
11830;BME280;5972;42.134;24.718;2022-10-16T05:37:30;100612.94;;;12.35;100.00
11830;BME280;5972;42.134;24.718;2022-10-16T05:39:58;100611.53;;;12.59;100.00
11830;BME280;5972;42.134;24.718;2022-10-16T05:42:25;100608.41;;;12.89;100.00
11830;BME280;5972;42.134;24.718;2022-10-16T05:44:52;100621.50;;;13.29;100.00
11830;BME280;5972;42.134;24.718;2022-10-16T05:47:19;100628.69;;;14.15;100.00
11830;BME280;5972;42.134;24.718;2022-10-16T05:49:46;100646.34;;;15.65;100.00
11830;BME280;5972;42.134;24.718;2022-10-16T05:52:13;100628.94;;;17.25;87.17
11830;BME280;5972;42.134;24.718;2022-10-16T05:54:40;100605.78;;;18.59;70.80
11830;BME280;5972;42.134;24.718;2022-10-16T05:57:08;100607.88;;;19.36;63.13
11830;BME280;5972;42.134;24.718;2022-10-16T05:59:35;100604.75;;;20.26;57.18
11830;BME280;5972;42.134;24.718;2022-10-16T06:02:02;100619.41;;;21.17;52.55
11830;BME280;5972;42.134;24.718;2022-10-16T06:04:29;100609.69;;;21.90;49.19
11830;BME280;5972;42.134;24.718;2022-10-16T06:06:58;100615.97;;;21.80;48.23
11830;BME280;5972;42.134;24.718;2022-10-16T06:09:26;100625.34;;;21.26;49.35
11830;BME280;5972;42.134;24.718;2022-10-16T06:11:53;100615.91;;;21.23;49.94
11830;BME280;5972;42.134;24.718;2022-10-16T06:14:21;100619.19;;;22.07;46.91
11830;BME280;5972;42.134;24.718;2022-10-16T06:16:48;100627.72;;;22.83;44.36
11830;BME280;5972;42.134;24.718;2022-10-16T06:19:15;100628.63;;;23.39;42.22
11830;BME280;5972;42.134;24.718;2022-10-16T06:21:43;100629.00;;;23.41;42.49
11830;BME280;5972;42.134;24.718;2022-10-16T06:24:10;100625.41;;;24.02;40.72
11830;BME280;5972;42.134;24.718;2022-10-16T06:26:37;100620.44;;;24.31;39.99
11830;BME280;5972;42.134;24.718;2022-10-16T06:29:04;100641.72;;;24.75;38.99
11830;BME280;5972;42.134;24.718;2022-10-16T06:31:33;100637.34;;;25.12;38.18
11830;BME280;5972;42.134;24.718;2022-10-16T06:34:00;100635.75;;;25.41;37.59
11830;BME280;5972;42.134;24.718;2022-10-16T06:36:27;100650.97;;;25.60;37.39
11830;BME280;5972;42.134;24.718;2022-10-16T06:38:54;100648.16;;;25.87;37.05
11830;BME280;5972;42.134;24.718;2022-10-16T06:41:22;100628.34;;;26.12;35.87
11830;BME280;5972;42.134;24.718;2022-10-16T06:43:49;100642.84;;;26.66;35.19
11830;BME280;5972;42.134;24.718;2022-10-16T06:46:19;100657.69;;;26.99;34.92
11830;BME280;5972;42.134;24.718;2022-10-16T06:48:48;100636.75;;;26.94;34.52
11830;BME280;5972;42.134;24.718;2022-10-16T06:51:16;100653.53;;;27.26;34.48
11830;BME280;5972;42.134;24.718;2022-10-16T06:53:45;100661.38;;;27.51;33.40
11830;BME280;5972;42.134;24.718;2022-10-16T06:56:14;100650.84;;;27.59;33.63
11830;BME280;5972;42.134;24.718;2022-10-16T06:58:42;100660.19;;;27.68;33.15
11830;BME280;5972;42.134;24.718;2022-10-16T07:01:10;100662.69;;;27.79;33.08
11830;BME280;5972;42.134;24.718;2022-10-16T07:03:37;100667.66;;;27.88;32.73
11830;BME280;5972;42.134;24.718;2022-10-16T07:06:07;100673.91;;;28.40;32.29
11830;BME280;5972;42.134;24.718;2022-10-16T07:08:36;100666.09;;;28.80;31.90
11830;BME280;5972;42.134;24.718;2022-10-16T07:11:04;100673.84;;;29.56;30.94
11830;BME280;5972;42.134;24.718;2022-10-16T07:13:33;100676.56;;;29.97;29.97
11830;BME280;5972;42.134;24.718;2022-10-16T07:16:04;100672.50;;;29.73;30.35
11830;BME280;5972;42.134;24.718;2022-10-16T07:18:31;100677.81;;;30.31;29.58
11830;BME280;5972;42.134;24.718;2022-10-16T07:21:03;100672.97;;;29.59;30.73
11830;BME280;5972;42.134;24.718;2022-10-16T07:23:31;100680.69;;;30.40;29.65
11830;BME280;5972;42.134;24.718;2022-10-16T07:25:58;100680.00;;;30.48;29.21
11830;BME280;5972;42.134;24.718;2022-10-16T07:28:25;100684.94;;;30.32;29.56
11830;BME280;5972;42.134;24.718;2022-10-16T07:30:52;100668.03;;;30.82;28.60
11830;BME280;5972;42.134;24.718;2022-10-16T07:33:19;100676.97;;;30.55;28.87
11830;BME280;5972;42.134;24.718;2022-10-16T07:35:50;100667.22;;;30.60;29.05
11830;BME280;5972;42.134;24.718;2022-10-16T07:38:18;100657.03;;;30.66;28.65
11830;BME280;5972;42.134;24.718;2022-10-16T07:40:46;100669.09;;;31.19;28.25
11830;BME280;5972;42.134;24.718;2022-10-16T07:43:14;100670.50;;;31.02;28.56
11830;BME280;5972;42.134;24.718;2022-10-16T07:45:50;100666.47;;;31.56;27.84
11830;BME280;5972;42.134;24.718;2022-10-16T07:48:17;100667.13;;;31.29;27.96
11830;BME280;5972;42.134;24.718;2022-10-16T07:50:44;100664.44;;;31.56;27.87
11830;BME280;5972;42.134;24.718;2022-10-16T07:53:12;100660.53;;;31.94;27.38
11830;BME280;5972;42.134;24.718;2022-10-16T07:55:39;100666.47;;;32.05;27.03
11830;BME280;5972;42.134;24.718;2022-10-16T07:58:07;100666.28;;;31.81;27.33
11830;BME280;5972;42.134;24.718;2022-10-16T08:00:36;100668.09;;;32.33;26.93
11830;BME280;5972;42.134;24.718;2022-10-16T08:03:03;100654.66;;;31.92;26.91
11830;BME280;5972;42.134;24.718;2022-10-16T08:05:32;100670.66;;;31.91;27.22
11830;BME280;5972;42.134;24.718;2022-10-16T08:07:59;100662.94;;;32.04;27.10
11830;BME280;5972;42.134;24.718;2022-10-16T08:10:27;100668.66;;;31.92;27.17
11830;BME280;5972;42.134;24.718;2022-10-16T08:12:55;100671.56;;;32.46;26.50
11830;BME280;5972;42.134;24.718;2022-10-16T08:15:23;100668.88;;;32.15;26.59
11830;BME280;5972;42.134;24.718;2022-10-16T08:17:57;100668.72;;;32.28;26.73
11830;BME280;5972;42.134;24.718;2022-10-16T08:20:25;100673.34;;;32.04;27.06
11830;BME280;5972;42.134;24.718;2022-10-16T08:22:52;100663.09;;;32.10;27.04
11830;BME280;5972;42.134;24.718;2022-10-16T08:25:19;100640.09;;;32.15;26.98
11830;BME280;5972;42.134;24.718;2022-10-16T08:27:46;100656.91;;;32.24;26.53
11830;BME280;5972;42.134;24.718;2022-10-16T08:30:14;100660.81;;;32.54;26.24
11830;BME280;5972;42.134;24.718;2022-10-16T08:32:42;100657.25;;;32.81;25.97
11830;BME280;5972;42.134;24.718;2022-10-16T08:35:09;100658.41;;;32.07;26.50
11830;BME280;5972;42.134;24.718;2022-10-16T08:37:36;100637.09;;;32.09;26.40
11830;BME280;5972;42.134;24.718;2022-10-16T08:40:06;100658.31;;;32.29;26.31
11830;BME280;5972;42.134;24.718;2022-10-16T08:42:47;100663.28;;;32.34;26.07
11830;BME280;5972;42.134;24.718;2022-10-16T08:45:34;100650.38;;;32.64;25.52
11830;BME280;5972;42.134;24.718;2022-10-16T08:48:14;100660.31;;;33.19;24.86
11830;BME280;5972;42.134;24.718;2022-10-16T08:50:44;100654.28;;;32.21;26.29
11830;BME280;5972;42.134;24.718;2022-10-16T08:53:16;100660.88;;;31.96;25.96
11830;BME280;5972;42.134;24.718;2022-10-16T08:55:46;100649.59;;;31.68;26.45
11830;BME280;5972;42.134;24.718;2022-10-16T08:58:17;100645.75;;;31.84;26.35
11830;BME280;5972;42.134;24.718;2022-10-16T09:00:46;100649.59;;;32.45;25.57
11830;BME280;5972;42.134;24.718;2022-10-16T09:03:21;100649.88;;;33.01;25.02
11830;BME280;5972;42.134;24.718;2022-10-16T09:06:17;100639.06;;;33.27;24.42
11830;BME280;5972;42.134;24.718;2022-10-16T09:08:59;100651.41;;;33.63;24.04
11830;BME280;5972;42.134;24.718;2022-10-16T09:11:38;100641.56;;;33.67;24.25
11830;BME280;5972;42.134;24.718;2022-10-16T09:14:29;100638.88;;;32.71;24.84
11830;BME280;5972;42.134;24.718;2022-10-16T09:17:14;100653.78;;;33.04;24.52
11830;BME280;5972;42.134;24.718;2022-10-16T09:19:52;100641.78;;;33.55;24.09
11830;BME280;5972;42.134;24.718;2022-10-16T09:22:21;100645.50;;;33.19;24.66
11830;BME280;5972;42.134;24.718;2022-10-16T09:24:51;100643.78;;;33.12;24.43
11830;BME280;5972;42.134;24.718;2022-10-16T09:27:18;100639.34;;;32.69;24.53
11830;BME280;5972;42.134;24.718;2022-10-16T09:29:45;100645.50;;;33.10;24.16
11830;BME280;5972;42.134;24.718;2022-10-16T09:32:14;100641.94;;;33.00;24.42
11830;BME280;5972;42.134;24.718;2022-10-16T09:34:47;100624.53;;;32.87;24.12
11830;BME280;5972;42.134;24.718;2022-10-16T09:37:18;100648.56;;;33.72;23.38
11830;BME280;5972;42.134;24.718;2022-10-16T09:39:46;100611.53;;;33.50;23.06
11830;BME280;5972;42.134;24.718;2022-10-16T09:42:16;100636.06;;;33.49;23.33
11830;BME280;5972;42.134;24.718;2022-10-16T09:44:47;100638.75;;;33.67;23.01
11830;BME280;5972;42.134;24.718;2022-10-16T09:47:16;100629.16;;;33.08;23.26
11830;BME280;5972;42.134;24.718;2022-10-16T09:49:52;100625.38;;;33.62;22.64
11830;BME280;5972;42.134;24.718;2022-10-16T09:52:21;100623.97;;;33.25;23.01
11830;BME280;5972;42.134;24.718;2022-10-16T09:54:50;100601.75;;;33.03;23.26
11830;BME280;5972;42.134;24.718;2022-10-16T09:57:18;100612.44;;;33.56;22.80
11830;BME280;5972;42.134;24.718;2022-10-16T09:59:48;100621.38;;;33.54;21.94
11830;BME280;5972;42.134;24.718;2022-10-16T10:02:17;100607.34;;;33.21;22.97
11830;BME280;5972;42.134;24.718;2022-10-16T10:04:49;100605.59;;;33.15;23.20
11830;BME280;5972;42.134;24.718;2022-10-16T10:07:25;100604.44;;;32.79;23.00
11830;BME280;5972;42.134;24.718;2022-10-16T10:09:55;100606.50;;;32.24;22.90
11830;BME280;5972;42.134;24.718;2022-10-16T10:12:24;100600.00;;;31.69;23.77
11830;BME280;5972;42.134;24.718;2022-10-16T10:14:53;100581.75;;;32.13;23.05
11830;BME280;5972;42.134;24.718;2022-10-16T10:17:21;100586.84;;;32.60;22.88
11830;BME280;5972;42.134;24.718;2022-10-16T10:19:52;100588.09;;;32.78;22.75
11830;BME280;5972;42.134;24.718;2022-10-16T10:22:26;100590.06;;;32.95;21.55
11830;BME280;5972;42.134;24.718;2022-10-16T10:25:19;100588.69;;;32.91;21.48
11830;BME280;5972;42.134;24.718;2022-10-16T10:28:03;100580.16;;;32.58;21.97
11830;BME280;5972;42.134;24.718;2022-10-16T10:30:41;100570.22;;;33.26;21.71
11830;BME280;5972;42.134;24.718;2022-10-16T10:33:19;100572.47;;;32.95;22.06
11830;BME280;5972;42.134;24.718;2022-10-16T10:35:55;100574.84;;;32.87;21.75
11830;BME280;5972;42.134;24.718;2022-10-16T10:38:31;100573.94;;;32.54;21.95
11830;BME280;5972;42.134;24.718;2022-10-16T10:41:27;100572.38;;;30.00;23.96
11830;BME280;5972;42.134;24.718;2022-10-16T10:44:07;100570.38;;;28.74;24.73
11830;BME280;5972;42.134;24.718;2022-10-16T10:46:42;100567.16;;;28.18;25.45
11830;BME280;5972;42.134;24.718;2022-10-16T10:52:16;100548.31;;;27.09;26.99
11830;BME280;5972;42.134;24.718;2022-10-16T10:54:53;100554.78;;;27.22;26.73
11830;BME280;5972;42.134;24.718;2022-10-16T10:57:29;100541.59;;;26.70;27.90
11830;BME280;5972;42.134;24.718;2022-10-16T11:00:16;100553.28;;;25.99;28.64
11830;BME280;5972;42.134;24.718;2022-10-16T11:02:48;100551.13;;;24.79;29.86
11830;BME280;5972;42.134;24.718;2022-10-16T11:05:33;100553.34;;;24.58;30.54
11830;BME280;5972;42.134;24.718;2022-10-16T11:08:09;100553.91;;;24.46;30.76
11830;BME280;5972;42.134;24.718;2022-10-16T11:10:44;100545.28;;;24.36;30.99
11830;BME280;5972;42.134;24.718;2022-10-16T11:13:20;100555.06;;;23.66;32.31
11830;BME280;5972;42.134;24.718;2022-10-16T11:15:52;100552.50;;;23.86;32.15
11830;BME280;5972;42.134;24.718;2022-10-16T11:18:21;100550.59;;;23.79;30.84
11830;BME280;5972;42.134;24.718;2022-10-16T11:20:54;100548.25;;;23.78;31.07
11830;BME280;5972;42.134;24.718;2022-10-16T11:23:26;100542.31;;;23.76;31.42
11830;BME280;5972;42.134;24.718;2022-10-16T11:25:59;100537.28;;;24.08;31.28
11830;BME280;5972;42.134;24.718;2022-10-16T11:28:31;100530.97;;;24.08;31.42
11830;BME280;5972;42.134;24.718;2022-10-16T11:31:03;100533.47;;;23.47;32.38
11830;BME280;5972;42.134;24.718;2022-10-16T11:33:37;100522.81;;;22.90;33.28
11830;BME280;5972;42.134;24.718;2022-10-16T11:36:12;100512.84;;;22.02;34.86
11830;BME280;5972;42.134;24.718;2022-10-16T11:38:45;100519.84;;;22.38;34.72
11830;BME280;5972;42.134;24.718;2022-10-16T11:41:20;100507.91;;;22.66;33.89
11830;BME280;5972;42.134;24.718;2022-10-16T11:43:53;100521.19;;;22.93;33.83
11830;BME280;5972;42.134;24.718;2022-10-16T11:46:24;100512.16;;;22.89;33.74
11830;BME280;5972;42.134;24.718;2022-10-16T11:48:56;100518.03;;;22.91;34.04
11830;BME280;5972;42.134;24.718;2022-10-16T11:51:31;100518.47;;;22.89;33.46
11830;BME280;5972;42.134;24.718;2022-10-16T11:54:04;100508.22;;;22.86;32.92
11830;BME280;5972;42.134;24.718;2022-10-16T11:56:39;100520.06;;;22.90;33.37
11830;BME280;5972;42.134;24.718;2022-10-16T11:59:13;100504.31;;;22.80;33.31
11830;BME280;5972;42.134;24.718;2022-10-16T12:01:47;100517.41;;;22.55;33.93
11830;BME280;5972;42.134;24.718;2022-10-16T12:04:22;100518.28;;;22.34;34.52
11830;BME280;5972;42.134;24.718;2022-10-16T12:06:58;100496.72;;;22.04;34.04
11830;BME280;5972;42.134;24.718;2022-10-16T12:09:29;100527.00;;;21.86;34.68
11830;BME280;5972;42.134;24.718;2022-10-16T12:11:59;100523.09;;;21.66;35.19
11830;BME280;5972;42.134;24.718;2022-10-16T12:14:37;100521.06;;;21.10;35.49
11830;BME280;5972;42.134;24.718;2022-10-16T12:17:24;100530.38;;;20.70;36.27
11830;BME280;5972;42.134;24.718;2022-10-16T12:19:58;100529.94;;;20.54;36.63
11830;BME280;5972;42.134;24.718;2022-10-16T12:22:28;100527.28;;;20.79;36.37
11830;BME280;5972;42.134;24.718;2022-10-16T12:24:56;100536.75;;;20.92;36.90
11830;BME280;5972;42.134;24.718;2022-10-16T12:27:28;100524.47;;;20.64;36.93
11830;BME280;5972;42.134;24.718;2022-10-16T12:29:57;100529.53;;;20.55;37.01
11830;BME280;5972;42.134;24.718;2022-10-16T12:32:29;100528.47;;;20.78;36.83
11830;BME280;5972;42.134;24.718;2022-10-16T12:34:57;100497.03;;;20.86;36.65
11830;BME280;5972;42.134;24.718;2022-10-16T12:37:26;100515.56;;;21.06;36.30
11830;BME280;5972;42.134;24.718;2022-10-16T12:39:55;100516.69;;;20.84;36.64
11830;BME280;5972;42.134;24.718;2022-10-16T12:42:33;100494.72;;;21.09;36.30
11830;BME280;5972;42.134;24.718;2022-10-16T12:45:01;100515.63;;;21.49;36.08
11830;BME280;5972;42.134;24.718;2022-10-16T12:47:46;100527.84;;;21.62;36.13
11830;BME280;5972;42.134;24.718;2022-10-16T12:50:31;100517.22;;;21.39;36.28
11830;BME280;5972;42.134;24.718;2022-10-16T12:52:59;100528.97;;;21.19;36.21
11830;BME280;5972;42.134;24.718;2022-10-16T12:55:27;100522.66;;;21.18;36.83
11830;BME280;5972;42.134;24.718;2022-10-16T12:58:21;100541.56;;;21.23;36.52
11830;BME280;5972;42.134;24.718;2022-10-16T13:00:56;100530.56;;;21.30;36.54
11830;BME280;5972;42.134;24.718;2022-10-16T13:03:48;100531.34;;;21.27;37.09